createdAt,value
2017-09-10T12:25:58.754Z,60.53
2017-09-10T12:26:58.754Z,60.05
2017-09-10T12:27:58.819Z,58.48
2017-09-10T12:28:58.750Z,61.27
2017-09-10T12:29:58.747Z,60.31
2017-09-10T12:30:59.070Z,62.42
2017-09-10T12:31:58.742Z,64.63
2017-09-10T12:32:58.739Z,63.28
2017-09-10T12:33:58.739Z,60.6
2017-09-10T12:34:59.062Z,60.4
2017-09-10T12:35:58.747Z,59.7
2017-09-10T12:36:59.059Z,62.96
2017-09-10T12:37:58.729Z,62.19
2017-09-10T12:38:58.744Z,60.47
2017-09-10T12:39:58.724Z,61.72
2017-09-10T12:40:58.722Z,60.66
2017-09-10T12:41:59.049Z,60.88
2017-09-10T12:42:58.719Z,58.84
2017-09-10T12:43:58.718Z,59.92
2017-09-10T12:44:58.712Z,58.48
2017-09-10T12:45:58.713Z,56.56
2017-09-10T12:46:58.707Z,59.7
2017-09-10T12:47:59.032Z,60.85
2017-09-10T12:48:59.038Z,61.17
2017-09-10T12:49:58.712Z,59.54
2017-09-10T12:50:58.718Z,59.16
2017-09-10T12:51:59.024Z,59.64
2017-09-10T12:52:58.717Z,59.66
2017-09-10T12:53:58.737Z,57.07
2017-09-10T12:54:59.018Z,56.21
2017-09-10T12:55:58.906Z,54.28
2017-09-10T12:56:59.014Z,57.93
2017-09-10T12:57:59.035Z,57.36
2017-09-10T12:58:59.012Z,55.34
2017-09-10T12:59:58.682Z,56.98
2017-09-10T13:00:58.679Z,57.26
2017-09-10T13:01:58.678Z,56.68
2017-09-10T13:02:58.677Z,54.86
2017-09-10T13:03:58.675Z,54.57
2017-09-10T13:04:59.016Z,56.78
2017-09-10T13:05:58.672Z,56.78
2017-09-10T13:06:58.669Z,58.32
2017-09-10T13:07:58.667Z,59.66
2017-09-10T13:08:58.665Z,58.58
2017-09-10T13:09:58.991Z,57.07
2017-09-10T13:10:58.665Z,56.37
2017-09-10T13:11:58.660Z,55.79
2017-09-10T13:12:58.677Z,57.62
2017-09-10T13:13:58.656Z,59.73
2017-09-10T13:14:58.655Z,59.64
2017-09-10T13:15:58.651Z,60.31
2017-09-10T13:16:58.975Z,60.6
2017-09-10T13:17:58.974Z,57.23
2017-09-10T13:18:58.645Z,58.1
2017-09-10T13:19:58.642Z,58.29
2017-09-10T13:20:58.748Z,58.39
2017-09-10T13:21:58.639Z,59.54
2017-09-10T13:22:58.638Z,58.2
2017-09-10T13:23:58.633Z,57.81
2017-09-10T13:24:58.970Z,58.39
2017-09-10T13:25:58.960Z,56.66
2017-09-10T13:26:58.629Z,57.62
2017-09-10T13:27:58.629Z,60.02
2017-09-10T13:28:58.639Z,59.86
2017-09-10T13:29:58.958Z,59.76
2017-09-10T13:30:58.952Z,56.11
2017-09-10T13:31:58.640Z,56.21
2017-09-10T13:32:58.621Z,57.33
2017-09-10T13:33:58.616Z,58.87
2017-09-10T13:34:58.613Z,58.48
2017-09-10T13:35:58.626Z,58.48
2017-09-10T13:36:58.938Z,57.9
2017-09-10T13:37:58.953Z,57.9
2017-09-10T13:38:58.606Z,58.58
2017-09-10T13:39:58.603Z,58.77
2017-09-10T13:40:58.930Z,59.83
2017-09-10T13:41:58.932Z,60.02
2017-09-10T13:42:58.926Z,59.92
2017-09-10T13:43:58.596Z,60.11
2017-09-10T13:44:58.930Z,60.28
2017-09-10T13:45:58.598Z,60.47
2017-09-10T13:46:58.590Z,61.72
2017-09-10T13:47:58.914Z,60.08
2017-09-10T13:48:58.915Z,62.29
2017-09-10T13:49:58.913Z,60.47
2017-09-10T13:50:58.908Z,60.95
2017-09-10T13:52:03.613Z,62.96
2017-09-10T13:52:58.906Z,62.23
2017-09-10T13:53:58.927Z,61.08
2017-09-10T13:54:58.900Z,61.55
2017-09-10T13:55:58.905Z,60.4
2017-09-10T13:56:58.897Z,59.22
2017-09-10T13:57:58.566Z,59.51
2017-09-10T13:58:58.893Z,59.64
2017-09-10T13:59:58.904Z,58.36
2017-09-10T14:00:58.561Z,59.51
2017-09-10T14:01:58.559Z,61.05
2017-09-10T14:02:58.577Z,59.99
2017-09-10T14:03:58.556Z,59.99
2017-09-10T14:04:58.553Z,60.57
2017-09-10T14:05:58.549Z,60.75
2017-09-10T14:06:58.567Z,59.61
2017-09-10T14:07:58.568Z,60.75
2017-09-10T14:08:58.876Z,60.47
2017-09-10T14:09:58.870Z,59.8
2017-09-10T14:10:58.539Z,60.95
2017-09-10T14:11:58.536Z,62.19
2017-09-10T14:12:58.861Z,62.39
2017-09-10T14:13:58.533Z,61.62
2017-09-10T14:14:58.531Z,63.16
2017-09-10T14:15:58.527Z,62.48
2017-09-10T14:16:58.525Z,60.85
2017-09-10T14:17:58.526Z,62.87
2017-09-10T14:18:58.521Z,61.98
2017-09-10T14:19:58.844Z,61.21
2017-09-10T14:20:58.567Z,62.26
2017-09-10T14:21:58.514Z,61.02
2017-09-10T14:22:58.836Z,61.11
2017-09-10T14:23:58.507Z,62.16
2017-09-10T14:24:58.507Z,62.07
2017-09-10T14:25:58.504Z,61.3
2017-09-10T14:26:58.845Z,62.45
2017-09-10T14:27:58.498Z,61.4
2017-09-10T14:28:58.823Z,63
2017-09-10T14:29:58.492Z,62.81
2017-09-10T14:30:58.491Z,62.23
2017-09-10T14:31:58.814Z,63
2017-09-10T14:32:58.484Z,63.67
2017-09-10T14:33:58.483Z,63.86
2017-09-10T14:34:58.479Z,64.4
2017-09-10T14:35:58.484Z,65.55
2017-09-10T14:36:58.800Z,65.26
2017-09-10T14:37:58.476Z,66.61
2017-09-10T14:38:58.795Z,66.13
2017-09-10T14:39:58.463Z,65.26
2017-09-10T14:40:58.461Z,65.84
2017-09-10T14:41:58.457Z,67.57
2017-09-10T14:42:58.462Z,66.99
2017-09-10T14:43:58.782Z,66.13
2017-09-10T14:44:58.776Z,65.84
2017-09-10T14:45:58.791Z,67.09
2017-09-10T14:46:58.441Z,66.42
2017-09-10T14:47:58.437Z,65.84
2017-09-10T14:48:58.760Z,64.98
2017-09-10T14:49:58.758Z,65.3
2017-09-10T14:50:58.427Z,65.94
2017-09-10T14:51:58.425Z,66.35
2017-09-10T14:52:58.747Z,66.61
2017-09-10T14:53:58.763Z,66.74
2017-09-10T14:54:58.744Z,66.26
2017-09-10T14:55:58.411Z,65.88
2017-09-10T14:56:58.743Z,65.68
2017-09-10T14:57:58.406Z,65.39
2017-09-10T14:58:58.402Z,66.16
2017-09-10T14:59:58.722Z,67.12
2017-09-10T15:00:58.752Z,66.55
2017-09-10T15:01:58.392Z,66.35
2017-09-10T15:02:58.388Z,64.63
2017-09-10T15:03:58.396Z,64.92
2017-09-10T15:04:58.711Z,66.45
2017-09-10T15:05:58.378Z,64.63
2017-09-10T15:06:58.375Z,63.96
2017-09-10T15:07:58.370Z,64.34
2017-09-10T15:08:58.696Z,64.34
2017-09-10T15:09:58.365Z,64.53
2017-09-10T15:10:58.702Z,64.43
2017-09-10T15:11:58.374Z,64.4
2017-09-10T15:12:58.356Z,64.98
2017-09-10T15:13:58.353Z,66.8
2017-09-10T15:14:58.348Z,66.03
2017-09-10T15:15:58.355Z,66.71
2017-09-10T15:16:58.347Z,66.03
2017-09-10T15:17:58.674Z,66.42
2017-09-10T15:18:58.335Z,66.99
2017-09-10T15:19:58.658Z,67.18
2017-09-10T15:20:58.326Z,66.42
2017-09-10T15:21:58.332Z,67.09
2017-09-10T15:22:58.319Z,68.68
2017-09-10T15:23:58.317Z,69.26
2017-09-10T15:24:58.313Z,67.82
2017-09-10T15:25:58.314Z,68.78
2017-09-10T15:26:58.307Z,67.63
2017-09-10T15:27:58.642Z,68.68
2017-09-10T15:28:58.315Z,68.78
2017-09-10T15:29:58.295Z,69.35
2017-09-10T15:30:58.291Z,69.54
2017-09-10T15:31:58.624Z,69.45
2017-09-10T15:32:58.610Z,69.35
2017-09-10T15:33:58.279Z,70.21
2017-09-10T15:34:58.274Z,70.03
2017-09-10T15:35:58.272Z,70.7
2017-09-10T15:36:58.596Z,71.27
2017-09-10T15:37:58.264Z,71.37
2017-09-10T15:38:58.608Z,71.84
2017-09-10T15:39:58.259Z,70.7
2017-09-10T15:40:58.253Z,72.09
2017-09-10T15:41:58.249Z,71.66
2017-09-10T15:42:58.243Z,71.81
2017-09-10T15:43:58.241Z,71.71
2017-09-10T15:44:58.235Z,70.56
2017-09-10T15:45:58.231Z,71.62
2017-09-10T15:46:58.228Z,72
2017-09-10T15:47:58.221Z,72.48
2017-09-10T15:48:58.220Z,73.24
2017-09-10T15:49:58.215Z,73.24
2017-09-10T15:50:58.212Z,73.82
2017-09-10T15:51:58.208Z,73.63
2017-09-10T15:52:58.203Z,73.15
2017-09-10T15:53:58.200Z,72.03
2017-09-10T15:54:58.521Z,72.29
2017-09-10T15:55:58.189Z,71.62
2017-09-10T15:56:58.517Z,72
2017-09-10T15:57:58.204Z,72.48
2017-09-10T15:58:58.178Z,72.96
2017-09-10T15:59:58.175Z,74.11
2017-09-10T16:00:58.168Z,74.4
2017-09-10T16:01:58.165Z,74.4
2017-09-10T16:02:58.488Z,73.91
2017-09-10T16:03:58.157Z,74.11
2017-09-10T16:04:58.149Z,74.26
2017-09-10T16:05:58.496Z,74.93
2017-09-10T16:06:58.163Z,74.07
2017-09-10T16:07:58.140Z,75.51
2017-09-10T16:08:58.461Z,75.41
2017-09-10T16:09:58.460Z,76.08
2017-09-10T16:10:58.125Z,76.75
2017-09-10T16:11:58.453Z,76.65
2017-09-10T16:12:58.114Z,76.42
2017-09-10T16:13:58.442Z,76.71
2017-09-10T16:14:58.108Z,78.14
2017-09-10T16:15:58.104Z,79.2
2017-09-10T16:16:58.429Z,79.2
2017-09-10T16:17:58.421Z,79.2
2017-09-10T16:18:58.090Z,79.1
2017-09-10T16:19:58.413Z,79
2017-09-10T16:20:58.080Z,79.39
2017-09-10T16:21:58.084Z,79.2
2017-09-10T16:22:58.070Z,80.16
2017-09-10T16:23:58.066Z,79.29
2017-09-10T16:24:58.062Z,79.49
2017-09-10T16:25:58.055Z,80.35
2017-09-10T16:26:58.050Z,80.25
2017-09-10T16:27:58.393Z,80.25
2017-09-10T16:28:58.041Z,79.87
2017-09-10T16:29:58.036Z,80.44
2017-09-10T16:30:58.031Z,80.06
2017-09-10T16:31:58.353Z,81.11
2017-09-10T16:32:58.021Z,81.97
2017-09-10T16:33:58.020Z,80.73
2017-09-10T16:34:58.025Z,80.44
2017-09-10T16:35:58.010Z,81.11
2017-09-10T16:36:58.002Z,81.55
2017-09-10T16:37:57.995Z,80.69
2017-09-10T16:38:58.322Z,81.07
2017-09-10T16:39:57.987Z,82.22
2017-09-10T16:40:57.992Z,82.7
2017-09-10T16:41:58.303Z,82.6
2017-09-10T16:42:58.302Z,83.08
2017-09-10T16:43:57.977Z,83.37
2017-09-10T16:44:57.960Z,83.46
2017-09-10T16:45:57.955Z,83.56
2017-09-10T16:46:57.949Z,83.75
2017-09-10T16:47:58.287Z,83.94
2017-09-10T16:48:57.949Z,84.03
2017-09-10T16:49:57.938Z,84.7
2017-09-10T16:50:58.255Z,84.99
2017-09-10T16:51:57.923Z,83.65
2017-09-10T16:52:57.918Z,84.56
2017-09-10T16:53:57.914Z,85.18
2017-09-10T16:54:58.237Z,84.42
2017-09-10T16:55:57.901Z,84.95
2017-09-10T16:56:58.232Z,84.66
2017-09-10T16:57:57.892Z,83.8
2017-09-10T16:58:58.217Z,84.66
2017-09-10T16:59:57.880Z,85.9
2017-09-10T17:00:58.206Z,85.42
2017-09-10T17:01:57.867Z,84.95
2017-09-10T17:02:57.868Z,85.05
2017-09-10T17:03:58.186Z,85.71
2017-09-10T17:04:57.853Z,86.76
2017-09-10T17:05:57.864Z,85.42
2017-09-10T17:06:58.176Z,85.62
2017-09-10T17:07:57.835Z,86.29
2017-09-10T17:08:58.167Z,86.47
2017-09-10T17:09:58.153Z,85.71
2017-09-10T17:10:57.817Z,85.9
2017-09-10T17:11:57.813Z,86.1
2017-09-10T17:12:58.136Z,86.1
2017-09-10T17:13:58.127Z,87.43
2017-09-10T17:14:58.157Z,87.72
2017-09-10T17:15:57.789Z,88.92
2017-09-10T17:16:57.783Z,90.2
2017-09-10T17:17:57.797Z,90.92
2017-09-10T17:18:58.100Z,91.59
2017-09-10T17:19:57.803Z,91.69
2017-09-10T17:20:57.759Z,92.07
2017-09-10T17:21:57.777Z,93.31
2017-09-10T17:22:58.075Z,94.07
2017-09-10T17:23:57.742Z,95.03
2017-09-10T17:24:57.736Z,96.17
2017-09-10T17:25:58.057Z,96.17
2017-09-10T17:26:58.054Z,96.84
2017-09-10T17:27:58.048Z,97.47
2017-09-10T17:28:57.732Z,98.42
2017-09-10T17:29:57.706Z,98.52
2017-09-10T17:30:57.699Z,99.08
2017-09-10T17:31:57.713Z,99.95
2017-09-10T17:32:57.690Z,99.76
2017-09-10T17:33:58.008Z,99.99
2017-09-10T17:34:57.675Z,99.99
2017-09-10T17:35:57.666Z,99.99
2017-09-10T17:36:57.996Z,99.99
2017-09-10T17:37:57.656Z,99.99
2017-09-10T17:38:58.026Z,99.99
2017-09-10T17:39:57.969Z,99.99
2017-09-10T17:40:57.635Z,99.99
2017-09-10T17:41:57.958Z,99.99
2017-09-10T17:42:57.621Z,99.99
2017-09-10T17:43:57.623Z,99.99
2017-09-10T17:44:57.610Z,99.99
2017-09-10T17:45:57.934Z,99.99
2017-09-10T17:46:57.925Z,99.99
2017-09-10T17:47:57.591Z,99.99
2017-09-10T17:48:57.582Z,99.99
2017-09-10T17:49:57.578Z,99.99
2017-09-10T17:50:57.895Z,99.99
2017-09-10T17:51:57.889Z,99.99
2017-09-10T17:52:57.555Z,99.99
2017-09-10T17:53:57.547Z,99.99
2017-09-10T17:54:57.541Z,99.99
2017-09-10T17:55:57.551Z,99.99
2017-09-10T17:56:57.858Z,99.99
2017-09-10T17:57:57.520Z,99.99
2017-09-10T17:58:57.514Z,99.99
2017-09-10T17:59:57.842Z,99.99
2017-09-10T18:00:57.507Z,99.99
2017-09-10T18:01:57.493Z,99.99
2017-09-10T18:02:57.809Z,99.99
2017-09-10T18:03:57.834Z,99.99
2017-09-10T18:04:57.796Z,99.99
2017-09-10T18:05:57.462Z,99.99
2017-09-10T18:06:57.456Z,99.99
2017-09-10T18:07:57.775Z,99.99
2017-09-10T18:08:57.458Z,99.99
2017-09-10T18:09:57.449Z,99.99
2017-09-10T18:10:57.755Z,99.99
2017-09-10T18:11:57.419Z,99.99
2017-09-10T18:12:57.756Z,99.99
2017-09-10T18:13:57.407Z,99.99
2017-09-10T18:14:57.401Z,99.99
2017-09-10T18:15:57.399Z,99.99
2017-09-10T18:16:57.383Z,99.99
2017-09-10T18:17:57.375Z,99.99
2017-09-10T18:18:57.569Z,99.99
2017-09-10T18:19:57.364Z,99.99
2017-09-10T18:20:57.694Z,99.99
2017-09-10T18:21:57.345Z,99.99
2017-09-10T18:22:57.677Z,99.99
2017-09-10T18:23:57.662Z,99.99
2017-09-10T18:24:57.363Z,99.99
2017-09-10T18:25:57.336Z,99.99
2017-09-10T18:26:57.637Z,99.99
2017-09-10T18:27:57.659Z,99.99
2017-09-10T18:28:57.292Z,99.99
2017-09-10T18:29:57.615Z,99.99
2017-09-10T18:30:57.275Z,99.99
2017-09-10T18:31:57.267Z,99.99
2017-09-10T18:32:57.601Z,99.99
2017-09-10T18:33:57.251Z,99.99
2017-09-10T18:34:57.243Z,99.99
2017-09-10T18:35:57.564Z,99.99
2017-09-10T18:36:57.553Z,99.99
2017-09-10T18:37:57.224Z,99.99
2017-09-10T18:38:57.538Z,99.99
2017-09-10T18:39:57.531Z,99.99
2017-09-10T18:40:57.541Z,99.99
2017-09-10T18:42:00.369Z,99.99
2017-09-10T18:42:57.182Z,99.99
2017-09-10T18:43:57.172Z,99.99
2017-09-10T18:44:57.490Z,99.99
2017-09-10T18:45:57.499Z,99.99
2017-09-10T18:46:57.166Z,99.99
2017-09-10T18:47:57.468Z,99.99
2017-09-10T18:48:57.133Z,99.99
2017-09-10T18:49:57.135Z,99.99
2017-09-10T18:50:57.116Z,99.99
2017-09-10T18:51:57.108Z,99.99
2017-09-10T18:52:57.427Z,99.99
2017-09-10T18:53:57.421Z,99.99
2017-09-10T18:54:57.411Z,99.99
2017-09-10T18:55:57.074Z,99.99
2017-09-10T18:56:57.067Z,99.99
2017-09-10T18:57:57.392Z,99.99
2017-09-10T18:58:57.391Z,99.99
2017-09-10T18:59:57.066Z,99.99
2017-09-10T19:00:57.032Z,99.99
2017-09-10T19:01:57.366Z,99.99
2017-09-10T19:02:57.018Z,99.99
2017-09-10T19:03:57.008Z,99.99
2017-09-10T19:04:57.000Z,99.99
2017-09-10T19:05:57.320Z,99.99
2017-09-10T19:06:56.985Z,99.99
2017-09-10T19:07:57.313Z,99.99
2017-09-10T19:08:57.297Z,99.99
2017-09-10T19:09:56.960Z,99.99
2017-09-10T19:10:56.950Z,99.99
2017-09-10T19:11:57.272Z,99.99
2017-09-10T19:12:56.936Z,99.99
2017-09-10T19:13:57.266Z,99.99
2017-09-10T19:14:56.918Z,99.99
2017-09-10T19:15:56.911Z,99.99
2017-09-10T19:16:56.905Z,99.99
2017-09-10T19:17:56.893Z,99.99
2017-09-10T19:18:56.885Z,99.99
2017-09-10T19:19:57.215Z,99.99
2017-09-10T19:20:56.869Z,99.99
2017-09-10T19:21:57.194Z,99.99
2017-09-10T19:22:56.855Z,99.99
2017-09-10T19:23:56.845Z,99.99
2017-09-10T19:24:56.836Z,99.99
2017-09-10T19:25:57.200Z,99.99
2017-09-10T19:26:56.822Z,99.99
2017-09-10T19:27:56.822Z,99.99
2017-09-10T19:28:56.813Z,99.99
2017-09-10T19:29:57.123Z,99.99
2017-09-10T19:30:56.788Z,99.99
2017-09-10T19:31:57.115Z,99.99
2017-09-10T19:32:56.785Z,99.99
2017-09-10T19:33:57.095Z,99.99
2017-09-10T19:34:56.751Z,99.99
2017-09-10T19:35:57.075Z,99.99
2017-09-10T19:36:56.735Z,99.99
2017-09-10T19:37:57.053Z,99.99
2017-09-10T19:38:57.056Z,99.99
2017-09-10T19:39:57.061Z,99.99
2017-09-10T19:40:57.032Z,99.99
2017-09-10T19:41:57.021Z,99.99
2017-09-10T19:42:56.685Z,99.99
2017-09-10T19:43:56.673Z,99.99
2017-09-10T19:44:57.004Z,99.99
2017-09-10T19:45:56.657Z,99.99
2017-09-10T19:46:56.662Z,99.99
2017-09-10T19:47:56.645Z,99.99
2017-09-10T19:48:56.632Z,99.99
2017-09-10T19:49:56.643Z,99.99
2017-09-10T19:50:56.612Z,99.99
2017-09-10T19:51:56.604Z,99.99
2017-09-10T19:52:56.937Z,99.99
2017-09-10T19:53:56.587Z,99.99
2017-09-10T19:54:56.909Z,99.99
2017-09-10T19:55:56.573Z,99.99
2017-09-10T19:56:56.576Z,99.99
2017-09-10T19:57:56.552Z,99.99
2017-09-10T19:58:56.543Z,99.99
2017-09-10T19:59:56.536Z,99.99
2017-09-10T20:00:56.937Z,99.99
2017-09-10T20:01:56.846Z,99.99
2017-09-10T20:02:56.835Z,99.99
2017-09-10T20:03:56.517Z,99.99
2017-09-10T20:04:56.489Z,99.99
2017-09-10T20:05:56.479Z,99.99
2017-09-10T20:06:56.473Z,99.99
2017-09-10T20:07:56.464Z,99.99
2017-09-10T20:08:56.784Z,99.99
2017-09-10T20:09:56.447Z,99.99
2017-09-10T20:10:56.774Z,99.99
2017-09-10T20:11:56.440Z,99.99
2017-09-10T20:12:56.437Z,99.99
2017-09-10T20:13:56.421Z,99.99
2017-09-10T20:14:56.403Z,99.99
2017-09-10T20:15:56.390Z,99.99
2017-09-10T20:16:56.708Z,99.99
2017-09-10T20:17:56.714Z,99.99
2017-09-10T20:18:56.365Z,99.99
2017-09-10T20:19:56.716Z,99.99
2017-09-10T20:20:56.355Z,99.99
2017-09-10T20:21:56.337Z,99.99
2017-09-10T20:22:56.667Z,99.99
2017-09-10T20:23:56.321Z,99.99
2017-09-10T20:24:56.671Z,99.99
2017-09-10T20:25:56.302Z,99.99
2017-09-10T20:26:56.641Z,99.99
2017-09-10T20:27:56.286Z,99.99
2017-09-10T20:28:56.602Z,99.99
2017-09-10T20:29:56.595Z,99.99
2017-09-10T20:30:56.258Z,99.99
2017-09-10T20:31:56.269Z,99.99
2017-09-10T20:32:56.240Z,99.99
2017-09-10T20:33:56.232Z,99.99
2017-09-10T20:34:56.218Z,99.99
2017-09-10T20:35:56.212Z,99.99
2017-09-10T20:36:56.531Z,99.99
2017-09-10T20:37:56.527Z,99.99
2017-09-10T20:38:56.185Z,99.99
2017-09-10T20:39:56.952Z,99.99
2017-09-10T20:40:56.176Z,99.99
2017-09-10T20:41:56.155Z,99.99
2017-09-10T20:42:56.179Z,99.99
2017-09-10T20:43:56.483Z,99.99
2017-09-10T20:44:56.130Z,99.99
2017-09-10T20:45:56.120Z,99.99
2017-09-10T20:46:56.442Z,99.99
2017-09-10T20:47:56.105Z,99.99
2017-09-10T20:48:56.095Z,99.99
2017-09-10T20:49:56.429Z,99.99
2017-09-10T20:50:56.075Z,99.99
2017-09-10T20:51:56.397Z,99.99
2017-09-10T20:52:56.059Z,99.99
2017-09-10T20:53:56.048Z,99.99
2017-09-10T20:54:56.381Z,99.99
2017-09-10T20:55:56.358Z,99.99
2017-09-10T20:56:56.024Z,99.99
2017-09-10T20:57:56.027Z,99.99
2017-09-10T20:58:56.020Z,99.99
2017-09-10T20:59:56.357Z,99.99
2017-09-10T21:00:56.312Z,99.99
2017-09-10T21:01:56.298Z,99.99
2017-09-10T21:02:56.049Z,99.99
2017-09-10T21:03:55.952Z,99.99
2017-09-10T21:04:55.945Z,99.99
2017-09-10T21:05:55.939Z,99.99
2017-09-10T21:06:56.256Z,99.99
2017-09-10T21:07:55.919Z,99.99
2017-09-10T21:08:55.911Z,99.99
2017-09-10T21:09:55.900Z,99.99
2017-09-10T21:10:55.910Z,99.99
2017-09-10T21:11:56.223Z,99.99
2017-09-10T21:12:56.200Z,99.99
2017-09-10T21:13:55.867Z,99.99
2017-09-10T21:14:55.853Z,99.99
2017-09-10T21:15:55.848Z,99.99
2017-09-10T21:16:56.191Z,99.99
2017-09-10T21:17:55.849Z,99.99
2017-09-10T21:18:55.816Z,99.99
2017-09-10T21:19:56.139Z,99.99
2017-09-10T21:20:55.798Z,99.99
2017-09-10T21:21:55.791Z,99.99
2017-09-10T21:22:55.781Z,99.99
2017-09-10T21:23:56.162Z,99.99
2017-09-10T21:24:55.764Z,99.99
2017-09-10T21:25:55.808Z,99.99
2017-09-10T21:26:56.075Z,99.99
2017-09-10T21:27:55.735Z,99.99
2017-09-10T21:28:56.055Z,99.99
2017-09-10T21:29:55.718Z,99.99
2017-09-10T21:30:55.710Z,99.99
2017-09-10T21:31:55.721Z,99.99
2017-09-10T21:32:56.019Z,99.99
2017-09-10T21:33:55.680Z,99.99
2017-09-10T21:34:55.671Z,99.99
2017-09-10T21:35:55.999Z,99.99
2017-09-10T21:36:55.652Z,99.99
2017-09-10T21:37:55.647Z,99.99
2017-09-10T21:38:55.637Z,99.99
2017-09-10T21:39:55.634Z,99.99
2017-09-10T21:40:55.617Z,99.99
2017-09-10T21:41:55.622Z,99.99
2017-09-10T21:42:55.945Z,99.99
2017-09-10T21:43:55.591Z,99.99
2017-09-10T21:44:55.606Z,99.99
2017-09-10T21:45:55.571Z,99.99
2017-09-10T21:46:55.561Z,99.99
2017-09-10T21:47:55.551Z,99.99
2017-09-10T21:48:55.874Z,99.99
2017-09-10T21:49:55.536Z,99.99
2017-09-10T21:50:55.526Z,99.99
2017-09-10T21:51:55.543Z,99.99
2017-09-10T21:52:55.507Z,99.99
2017-09-10T21:53:55.497Z,99.99
2017-09-10T21:54:55.511Z,99.99
2017-09-10T21:55:55.822Z,99.99
2017-09-10T21:56:55.471Z,99.99
2017-09-10T21:57:55.470Z,99.99
2017-09-10T21:58:55.474Z,99.99
2017-09-10T21:59:55.444Z,99.99
2017-09-10T22:00:55.438Z,99.99
2017-09-10T22:01:55.762Z,99.99
2017-09-10T22:02:55.417Z,99.99
2017-09-10T22:03:55.409Z,99.99
2017-09-10T22:04:55.402Z,99.99
2017-09-10T22:05:55.717Z,99.99
2017-09-10T22:06:55.394Z,99.99
2017-09-10T22:07:55.374Z,99.99
2017-09-10T22:08:55.362Z,99.99
2017-09-10T22:09:55.678Z,99.99
2017-09-10T22:10:55.671Z,99.99
2017-09-10T22:11:55.335Z,99.99
2017-09-10T22:12:55.334Z,99.99
2017-09-10T22:13:55.315Z,99.99
2017-09-10T22:14:55.636Z,99.99
2017-09-10T22:15:55.297Z,99.99
2017-09-10T22:16:55.288Z,99.99
2017-09-10T22:17:55.285Z,99.99
2017-09-10T22:18:55.597Z,99.99
2017-09-10T22:19:55.261Z,99.99
2017-09-10T22:20:55.251Z,99.99
2017-09-10T22:21:55.609Z,99.99
2017-09-10T22:22:55.561Z,99.99
2017-09-10T22:23:55.222Z,99.99
2017-09-10T22:24:55.544Z,99.99
2017-09-10T22:25:55.207Z,99.99
2017-09-10T22:26:55.548Z,99.99
2017-09-10T22:27:55.185Z,99.99
2017-09-10T22:28:55.521Z,99.99
2017-09-10T22:29:55.496Z,99.99
2017-09-10T22:30:55.168Z,99.99
2017-09-10T22:31:55.166Z,99.99
2017-09-10T22:32:55.140Z,99.99
2017-09-10T22:33:55.465Z,99.99
2017-09-10T22:34:55.123Z,99.99
2017-09-10T22:35:55.111Z,99.99
2017-09-10T22:36:55.432Z,99.99
2017-09-10T22:37:55.095Z,99.99
2017-09-10T22:38:55.085Z,99.99
2017-09-10T22:39:55.401Z,99.99
2017-09-10T22:40:55.073Z,99.99
2017-09-10T22:41:55.058Z,99.99
2017-09-10T22:42:55.375Z,99.99
2017-09-10T22:43:55.379Z,99.99
2017-09-10T22:44:55.045Z,99.99
2017-09-10T22:45:55.021Z,99.99
2017-09-10T22:46:55.010Z,99.99
2017-09-10T22:47:55.001Z,99.99
2017-09-10T22:48:54.996Z,99.99
2017-09-10T22:49:55.006Z,99.99
2017-09-10T22:50:55.300Z,99.99
2017-09-10T22:51:54.993Z,99.99
2017-09-10T22:52:55.282Z,99.99
2017-09-10T22:53:55.081Z,99.99
2017-09-10T22:54:54.937Z,99.99
2017-09-10T22:55:54.928Z,99.99
2017-09-10T22:56:55.247Z,99.99
2017-09-10T22:57:54.924Z,99.99
2017-09-10T22:58:55.240Z,99.99
2017-09-10T22:59:54.890Z,99.99
2017-09-10T23:00:54.881Z,99.99
2017-09-10T23:01:54.873Z,99.99
2017-09-10T23:02:55.188Z,99.99
2017-09-10T23:03:54.854Z,99.99
2017-09-10T23:04:54.849Z,99.99
2017-09-10T23:05:55.164Z,99.99
2017-09-10T23:06:54.824Z,99.99
2017-09-10T23:07:54.816Z,99.99
2017-09-10T23:08:55.137Z,99.99
2017-09-10T23:09:54.796Z,99.99
2017-09-10T23:10:54.796Z,99.99
2017-09-10T23:11:55.107Z,99.99
2017-09-10T23:12:54.768Z,99.99
2017-09-10T23:13:54.760Z,99.99
2017-09-10T23:14:55.081Z,99.99
2017-09-10T23:15:54.741Z,99.99
2017-09-10T23:16:54.731Z,99.99
2017-09-10T23:17:54.721Z,99.99
2017-09-10T23:18:54.734Z,99.99
2017-09-10T23:19:55.041Z,99.99
2017-09-10T23:20:55.025Z,99.99
2017-09-10T23:21:54.685Z,99.99
2017-09-10T23:22:55.004Z,99.99
2017-09-10T23:23:54.665Z,99.99
2017-09-10T23:24:54.654Z,99.99
2017-09-10T23:25:54.978Z,99.99
2017-09-10T23:26:54.641Z,99.99
2017-09-10T23:27:54.954Z,99.99
2017-09-10T23:28:54.632Z,99.99
2017-09-10T23:29:54.953Z,99.99
2017-09-10T23:30:54.930Z,99.99
2017-09-10T23:31:54.590Z,99.99
2017-09-10T23:32:54.582Z,99.99
2017-09-10T23:33:54.576Z,99.99
2017-09-10T23:34:54.562Z,99.99
2017-09-10T23:35:54.576Z,99.99
2017-09-10T23:36:54.548Z,99.99
2017-09-10T23:37:54.540Z,99.99
2017-09-10T23:38:54.738Z,99.99
2017-09-10T23:39:54.519Z,99.99
2017-09-10T23:40:54.834Z,99.99
2017-09-10T23:41:54.500Z,99.99
2017-09-10T23:42:54.834Z,99.99
2017-09-10T23:43:54.811Z,99.99
2017-09-10T23:44:54.470Z,99.99
2017-09-10T23:45:54.459Z,99.99
2017-09-10T23:46:54.451Z,99.99
2017-09-10T23:47:54.446Z,99.99
2017-09-10T23:48:54.761Z,99.99
2017-09-10T23:49:54.750Z,99.99
2017-09-10T23:50:54.743Z,99.99
2017-09-10T23:51:54.405Z,99.99
2017-09-10T23:52:54.397Z,99.99
2017-09-10T23:53:54.715Z,99.99
2017-09-10T23:54:54.377Z,99.99
2017-09-10T23:55:54.367Z,99.99
2017-09-10T23:56:54.695Z,99.99
2017-09-10T23:57:54.349Z,99.99
2017-09-10T23:58:54.342Z,99.99
2017-09-10T23:59:54.658Z,99.99
